createdAt,value
2018-06-06T00:01:49.553Z,99.90
2018-06-06T00:04:18.295Z,99.90
2018-06-06T00:06:48.088Z,99.90
2018-06-06T00:09:16.870Z,99.90
2018-06-06T00:11:46.166Z,99.90
2018-06-06T00:14:15.004Z,99.90
2018-06-06T00:16:43.771Z,99.90
2018-06-06T00:19:12.594Z,99.90
2018-06-06T00:21:41.390Z,99.90
2018-06-06T00:24:10.161Z,99.90
2018-06-06T00:26:39.031Z,99.90
2018-06-06T00:29:11.532Z,99.90
2018-06-06T00:31:42.386Z,99.90
2018-06-06T00:34:11.151Z,99.90
2018-06-06T00:36:40.990Z,99.90
2018-06-06T00:39:10.816Z,99.90
2018-06-06T00:41:41.627Z,99.90
2018-06-06T00:44:10.767Z,99.90
2018-06-06T00:46:39.572Z,99.90
2018-06-06T00:49:09.368Z,99.90
2018-06-06T00:51:40.218Z,99.90
2018-06-06T00:54:09.041Z,99.90
2018-06-06T00:59:06.462Z,99.90
2018-06-06T01:01:41.318Z,99.90
2018-06-06T01:04:12.107Z,99.90
2018-06-06T01:06:40.910Z,99.90
2018-06-06T01:09:09.860Z,99.90
2018-06-06T01:11:38.879Z,99.90
2018-06-06T01:14:07.725Z,99.90
2018-06-06T01:16:41.624Z,99.90
2018-06-06T01:19:14.020Z,99.90
2018-06-06T01:21:42.801Z,99.90
2018-06-06T01:24:11.600Z,99.90
2018-06-06T01:26:41.460Z,99.90
2018-06-06T01:29:10.243Z,99.90
2018-06-06T01:31:40.186Z,99.90
2018-06-06T01:34:08.979Z,99.90
2018-06-06T01:36:37.797Z,99.90
2018-06-06T01:39:07.577Z,99.90
2018-06-06T01:41:37.407Z,99.90
2018-06-06T01:44:06.275Z,99.90
2018-06-06T01:46:35.012Z,99.90
2018-06-06T01:49:04.829Z,99.90
2018-06-06T01:51:33.646Z,99.90
2018-06-06T01:54:14.023Z,99.90
2018-06-06T01:56:42.774Z,99.90
2018-06-06T01:59:11.599Z,99.90
2018-06-06T02:01:42.349Z,99.90
2018-06-06T02:04:11.189Z,99.90
2018-06-06T02:06:40.007Z,99.90
2018-06-06T02:09:08.791Z,99.90
2018-06-06T02:11:37.562Z,99.90
2018-06-06T02:14:06.452Z,99.90
2018-06-06T02:16:35.194Z,99.90
2018-06-06T02:19:03.956Z,99.90
2018-06-06T02:21:36.350Z,99.90
2018-06-06T02:24:06.210Z,99.90
2018-06-06T02:26:34.932Z,99.90
2018-06-06T02:29:03.815Z,99.90
2018-06-06T02:31:32.572Z,99.90
2018-06-06T02:34:01.396Z,99.90
2018-06-06T02:36:35.204Z,99.90
2018-06-06T02:39:08.899Z,99.90
2018-06-06T02:41:37.700Z,99.90
2018-06-06T02:44:06.553Z,99.90
2018-06-06T02:46:45.434Z,99.90
2018-06-06T02:49:14.220Z,99.90
2018-06-06T02:51:43.975Z,99.90
2018-06-06T02:54:12.861Z,99.90
2018-06-06T02:59:11.117Z,99.90
2018-06-06T03:01:41.993Z,99.90
2018-06-06T03:04:10.812Z,99.90
2018-06-06T03:06:39.610Z,99.90
2018-06-06T03:09:08.428Z,99.90
2018-06-06T03:11:41.255Z,99.90
2018-06-06T03:14:10.158Z,99.90
2018-06-06T03:16:40.104Z,99.90
2018-06-06T03:19:15.588Z,99.90
2018-06-06T03:21:44.460Z,99.90
2018-06-06T03:26:42.742Z,99.90
2018-06-06T03:29:11.648Z,99.90
2018-06-06T03:31:41.477Z,99.90
2018-06-06T03:34:11.367Z,99.90
2018-06-06T03:36:40.239Z,99.90
2018-06-06T03:39:09.015Z,99.90
2018-06-06T03:41:41.107Z,99.90
2018-06-06T03:44:10.916Z,99.90
2018-06-06T03:46:39.815Z,99.90
2018-06-06T03:49:08.543Z,99.90
2018-06-06T03:51:37.312Z,99.90
2018-06-06T03:54:06.134Z,99.90
2018-06-06T03:56:34.910Z,99.90
2018-06-06T03:59:03.704Z,99.90
2018-06-06T04:01:32.530Z,99.90
2018-06-06T04:04:01.349Z,99.90
2018-06-06T04:06:40.278Z,99.90
2018-06-06T04:09:11.401Z,99.20
2018-06-06T04:11:40.250Z,97.40
2018-06-06T04:14:14.314Z,95.60
2018-06-06T04:16:43.174Z,93.50
2018-06-06T04:19:11.931Z,92.60
2018-06-06T04:21:40.789Z,91.30
2018-06-06T04:24:09.594Z,90.00
2018-06-06T04:26:45.711Z,86.40
2018-06-06T04:29:15.639Z,83.30
2018-06-06T04:31:45.366Z,79.90
2018-06-06T04:34:14.309Z,75.90
2018-06-06T04:36:43.246Z,73.40
2018-06-06T04:39:12.009Z,70.60
2018-06-06T04:41:40.799Z,68.40
2018-06-06T04:44:10.744Z,67.50
2018-06-06T04:46:39.766Z,66.70
2018-06-06T04:49:08.604Z,66.30
2018-06-06T04:51:37.536Z,66.00
2018-06-06T04:54:06.299Z,65.50
2018-06-06T04:56:38.374Z,64.50
2018-06-06T04:59:07.103Z,64.50
2018-06-06T05:01:35.875Z,63.80
2018-06-06T05:04:04.686Z,63.10
2018-06-06T05:06:33.492Z,62.70
2018-06-06T05:09:06.581Z,62.70
2018-06-06T05:11:37.623Z,61.00
2018-06-06T05:14:07.518Z,61.10
2018-06-06T05:16:36.412Z,62.80
2018-06-06T05:19:10.718Z,67.00
2018-06-06T05:21:39.483Z,70.60
2018-06-06T05:24:08.411Z,73.50
2018-06-06T05:26:40.579Z,75.90
2018-06-06T05:29:15.782Z,77.50
2018-06-06T05:34:15.706Z,82.00
2018-06-06T05:36:44.523Z,83.80
2018-06-06T05:39:17.100Z,86.10
2018-06-06T05:41:47.978Z,88.30
2018-06-06T05:44:16.753Z,90.50
2018-06-06T05:46:45.534Z,91.90
2018-06-06T05:49:14.331Z,92.90
2018-06-06T05:51:46.389Z,94.50
2018-06-06T05:54:15.221Z,95.10
2018-06-06T05:56:44.034Z,96.20
2018-06-06T05:59:15.520Z,97.00
2018-06-06T06:01:46.669Z,98.00
2018-06-06T06:04:16.464Z,98.60
2018-06-06T06:06:45.232Z,98.90
2018-06-06T06:09:15.100Z,99.50
2018-06-06T06:11:43.880Z,99.90
2018-06-06T06:14:12.788Z,99.90
2018-06-06T06:16:41.512Z,99.90
2018-06-06T06:19:10.341Z,99.90
2018-06-06T06:21:39.220Z,99.90
2018-06-06T06:24:08.025Z,99.90
2018-06-06T06:26:38.936Z,99.90
2018-06-06T06:29:08.847Z,99.90
2018-06-06T06:31:37.586Z,99.90
2018-06-06T06:34:07.410Z,99.90
2018-06-06T06:36:37.262Z,99.90
2018-06-06T06:39:08.205Z,99.90
2018-06-06T06:41:36.931Z,99.90
2018-06-06T06:44:10.706Z,99.90
2018-06-06T06:46:39.473Z,99.90
2018-06-06T06:49:08.331Z,99.90
2018-06-06T06:51:37.691Z,99.90
2018-06-06T06:54:06.639Z,99.90
2018-06-06T06:56:35.512Z,99.90
2018-06-06T06:59:04.299Z,99.90
2018-06-06T07:01:33.102Z,99.90
2018-06-06T07:04:18.466Z,99.90
2018-06-06T07:06:47.326Z,99.90
2018-06-06T07:09:17.150Z,99.90
2018-06-06T07:11:46.107Z,99.90
2018-06-06T07:14:14.982Z,99.90
2018-06-06T07:16:50.127Z,99.90
2018-06-06T07:19:24.715Z,99.90
2018-06-06T07:21:53.456Z,99.90
2018-06-06T07:24:23.314Z,99.90
2018-06-06T07:26:52.106Z,99.90
2018-06-06T07:29:20.915Z,99.90
2018-06-06T07:31:50.864Z,99.90
2018-06-06T07:34:19.633Z,99.90
2018-06-06T07:36:50.511Z,99.90
2018-06-06T07:39:25.661Z,99.90
2018-06-06T07:41:55.533Z,99.90
2018-06-06T07:44:24.335Z,99.90
2018-06-06T07:46:54.105Z,99.90
2018-06-06T07:49:23.981Z,99.90
2018-06-06T07:51:53.654Z,99.90
2018-06-06T07:54:23.497Z,99.90
2018-06-06T07:56:57.476Z,99.90
2018-06-06T07:59:29.709Z,99.90
2018-06-06T08:01:58.481Z,99.90
2018-06-06T08:04:33.853Z,99.90
2018-06-06T08:07:03.856Z,99.90
2018-06-06T08:09:38.575Z,99.90
2018-06-06T08:12:07.578Z,99.90
2018-06-06T08:14:36.410Z,99.90
2018-06-06T08:17:05.214Z,99.90
2018-06-06T08:19:39.617Z,99.90
2018-06-06T08:22:12.243Z,99.90
2018-06-06T08:24:41.077Z,99.90
2018-06-06T08:27:11.037Z,99.90
2018-06-06T08:29:40.776Z,99.90
2018-06-06T08:32:09.630Z,99.90
2018-06-06T08:34:39.511Z,99.90
2018-06-06T08:37:08.464Z,99.90
2018-06-06T08:39:37.260Z,99.90
2018-06-06T08:42:07.103Z,99.90
2018-06-06T08:44:35.962Z,99.90
2018-06-06T08:47:05.697Z,99.90
2018-06-06T08:49:34.500Z,99.90
2018-06-06T08:52:03.825Z,99.90
2018-06-06T08:54:32.701Z,99.90
2018-06-06T08:57:05.289Z,99.90
2018-06-06T08:59:35.333Z,99.90
2018-06-06T09:02:04.569Z,99.90
2018-06-06T09:04:34.152Z,99.90
2018-06-06T09:07:02.903Z,99.90
2018-06-06T09:09:32.028Z,99.90
2018-06-06T09:12:02.029Z,99.90
2018-06-06T09:14:31.050Z,99.80
2018-06-06T09:16:59.981Z,99.50
2018-06-06T09:19:37.647Z,98.80
2018-06-06T09:22:16.225Z,98.70
2018-06-06T09:24:45.023Z,98.20
2018-06-06T09:27:13.802Z,97.70
2018-06-06T09:29:43.069Z,98.30
2018-06-06T09:32:12.907Z,97.80
2018-06-06T09:34:41.686Z,97.20
2018-06-06T09:37:10.450Z,96.60
2018-06-06T09:39:39.730Z,95.70
2018-06-06T09:42:08.658Z,95.70
2018-06-06T09:44:37.397Z,95.50
2018-06-06T09:47:06.349Z,95.70
2018-06-06T09:49:36.539Z,94.20
2018-06-06T09:52:05.345Z,93.30
2018-06-06T09:57:02.681Z,93.50
2018-06-06T09:59:35.422Z,93.50
2018-06-06T10:04:34.750Z,92.50
2018-06-06T10:07:03.522Z,92.40
2018-06-06T10:09:37.596Z,92.10
2018-06-06T10:12:09.688Z,92.00
2018-06-06T10:14:38.451Z,91.40
2018-06-06T10:17:12.143Z,90.70
2018-06-06T10:19:44.848Z,90.60
2018-06-06T10:22:13.785Z,91.20
2018-06-06T10:24:42.550Z,90.40
2018-06-06T10:27:15.562Z,90.60
2018-06-06T10:29:44.362Z,90.20
2018-06-06T10:32:13.292Z,90.10
2018-06-06T10:34:43.026Z,89.00
2018-06-06T10:37:11.896Z,88.80
2018-06-06T10:39:40.650Z,87.90
2018-06-06T10:42:09.952Z,88.10
2018-06-06T10:44:38.827Z,89.80
2018-06-06T10:47:07.881Z,89.20
2018-06-06T10:49:36.592Z,89.30
2018-06-06T10:52:05.397Z,88.60
2018-06-06T10:54:34.269Z,87.80
2018-06-06T10:57:03.126Z,86.20
2018-06-06T10:59:33.357Z,84.90
2018-06-06T11:02:03.992Z,85.00
2018-06-06T11:04:32.755Z,83.50
2018-06-06T11:07:01.482Z,80.20
2018-06-06T11:09:30.295Z,78.30
2018-06-06T11:11:59.106Z,79.40
2018-06-06T11:14:28.286Z,79.60
2018-06-06T11:16:57.041Z,78.70
2018-06-06T11:19:26.134Z,77.30
2018-06-06T11:21:54.939Z,78.10
2018-06-06T11:24:24.695Z,79.70
2018-06-06T11:26:53.682Z,80.20
2018-06-06T11:29:22.798Z,79.80
2018-06-06T11:31:51.637Z,77.10
2018-06-06T11:34:20.507Z,73.50
2018-06-06T11:36:49.261Z,76.90
2018-06-06T11:39:18.066Z,78.90
2018-06-06T11:41:46.987Z,79.50
2018-06-06T11:44:16.850Z,75.10
2018-06-06T11:46:45.761Z,76.40
2018-06-06T11:49:16.625Z,76.70
2018-06-06T11:51:45.557Z,74.90
2018-06-06T11:54:15.574Z,74.20
2018-06-06T11:56:44.496Z,75.90
2018-06-06T11:59:17.113Z,75.90
2018-06-06T12:01:46.908Z,72.80
2018-06-06T12:04:16.017Z,69.00
2018-06-06T12:06:44.877Z,68.80
2018-06-06T12:09:16.024Z,69.60
2018-06-06T12:11:44.814Z,71.60
2018-06-06T12:14:16.902Z,71.20
2018-06-06T12:16:46.986Z,70.50
2018-06-06T12:19:19.308Z,70.20
2018-06-06T12:21:49.283Z,68.60
2018-06-06T12:24:18.082Z,69.20
2018-06-06T12:26:49.067Z,69.80
2018-06-06T12:29:17.993Z,67.30
2018-06-06T12:31:48.050Z,67.50
2018-06-06T12:34:20.824Z,68.10
2018-06-06T12:36:49.852Z,68.00
2018-06-06T12:39:18.732Z,67.90
2018-06-06T12:41:51.246Z,68.50
2018-06-06T12:44:20.043Z,67.80
2018-06-06T12:46:48.926Z,68.50
2018-06-06T12:49:18.035Z,68.70
2018-06-06T12:51:49.061Z,68.70
2018-06-06T12:54:20.042Z,69.40
2018-06-06T12:56:49.019Z,68.80
2018-06-06T12:59:18.929Z,68.70
2018-06-06T13:01:48.833Z,67.90
2018-06-06T13:04:19.730Z,67.40
2018-06-06T13:06:50.772Z,67.30
2018-06-06T13:09:20.307Z,67.60
2018-06-06T13:11:48.997Z,66.80
2018-06-06T13:14:17.947Z,66.70
2018-06-06T13:16:48.158Z,66.60
2018-06-06T13:19:17.009Z,66.90
2018-06-06T13:21:46.654Z,66.00
2018-06-06T13:24:15.521Z,66.30
2018-06-06T13:26:45.326Z,66.20
2018-06-06T13:29:14.402Z,65.60
2018-06-06T13:31:43.323Z,66.40
2018-06-06T13:34:12.059Z,66.70
2018-06-06T13:36:40.787Z,66.90
2018-06-06T13:39:09.969Z,66.40
2018-06-06T13:41:38.701Z,66.80
2018-06-06T13:44:07.509Z,66.00
2018-06-06T13:46:36.237Z,64.90
2018-06-06T13:49:05.290Z,65.20
2018-06-06T13:51:34.316Z,64.40
2018-06-06T13:54:05.201Z,64.20
2018-06-06T13:56:34.096Z,63.90
2018-06-06T13:59:03.080Z,63.30
2018-06-06T14:01:33.061Z,63.60
2018-06-06T14:04:02.003Z,63.10
2018-06-06T14:06:30.906Z,63.40
2018-06-06T14:08:59.842Z,65.70
2018-06-06T14:11:28.653Z,65.10
2018-06-06T14:14:00.752Z,64.90
2018-06-06T14:16:29.474Z,65.40
2018-06-06T14:18:58.381Z,63.70
2018-06-06T14:21:27.351Z,62.80
2018-06-06T14:23:56.138Z,62.20
2018-06-06T14:26:25.572Z,63.10
2018-06-06T14:28:54.380Z,63.10
2018-06-06T14:31:23.143Z,61.20
2018-06-06T14:34:00.081Z,60.60
2018-06-06T14:36:28.864Z,62.30
2018-06-06T14:39:01.791Z,62.90
2018-06-06T14:41:30.595Z,62.70
2018-06-06T14:44:00.334Z,62.90
2018-06-06T14:46:29.202Z,62.90
2018-06-06T14:48:59.063Z,63.00
2018-06-06T14:51:31.753Z,62.40
2018-06-06T14:54:00.583Z,62.60
2018-06-06T14:56:29.390Z,62.60
2018-06-06T14:58:59.306Z,61.10
2018-06-06T15:01:31.681Z,60.40
2018-06-06T15:04:00.771Z,59.10
2018-06-06T15:06:29.475Z,58.50
2018-06-06T15:08:58.285Z,58.00
2018-06-06T15:11:27.120Z,58.60
2018-06-06T15:13:55.912Z,58.70
2018-06-06T15:16:25.131Z,59.40
2018-06-06T15:21:22.421Z,60.60
2018-06-06T15:23:57.382Z,60.80
2018-06-06T15:26:26.163Z,60.20
2018-06-06T15:28:54.944Z,59.90
2018-06-06T15:31:24.619Z,59.50
2018-06-06T15:33:53.665Z,58.10
2018-06-06T15:36:22.594Z,57.00
2018-06-06T15:38:51.753Z,57.00
2018-06-06T15:41:20.681Z,57.70
2018-06-06T15:43:49.653Z,58.10
2018-06-06T15:46:18.462Z,58.70
2018-06-06T15:48:47.967Z,59.70
2018-06-06T15:51:16.917Z,59.90
2018-06-06T15:53:46.027Z,59.60
2018-06-06T15:56:14.974Z,59.80
2018-06-06T15:58:43.705Z,56.40
2018-06-06T16:01:13.660Z,56.20
2018-06-06T16:03:42.615Z,56.10
2018-06-06T16:06:11.517Z,55.40
2018-06-06T16:08:40.413Z,55.70
2018-06-06T16:11:14.410Z,55.50
2018-06-06T16:13:44.091Z,55.60
2018-06-06T16:16:12.798Z,55.50
2018-06-06T16:18:45.380Z,55.10
2018-06-06T16:21:14.167Z,53.90
2018-06-06T16:23:43.025Z,54.50
2018-06-06T16:26:11.749Z,54.40
2018-06-06T16:28:40.594Z,54.70
2018-06-06T16:31:11.564Z,54.40
2018-06-06T16:33:41.495Z,54.40
2018-06-06T16:36:11.430Z,54.00
2018-06-06T16:38:46.198Z,54.00
2018-06-06T16:41:16.172Z,53.80
2018-06-06T16:43:49.498Z,53.30
2018-06-06T16:46:18.284Z,53.70
2018-06-06T16:48:47.125Z,53.20
2018-06-06T16:53:44.352Z,51.90
2018-06-06T16:56:13.176Z,51.70
2018-06-06T16:58:41.969Z,52.20
2018-06-06T17:01:10.780Z,52.20
2018-06-06T17:03:39.612Z,51.70
2018-06-06T17:06:08.366Z,51.90
2018-06-06T17:08:39.193Z,51.30
2018-06-06T17:11:07.984Z,50.60
2018-06-06T17:13:39.942Z,50.80
2018-06-06T17:16:08.765Z,51.00
2018-06-06T17:18:37.616Z,51.00
2018-06-06T17:21:06.319Z,51.10
2018-06-06T17:23:37.232Z,51.40
2018-06-06T17:26:07.055Z,51.20
2018-06-06T17:28:35.940Z,50.80
2018-06-06T17:31:04.734Z,50.90
2018-06-06T17:33:39.091Z,50.90
2018-06-06T17:36:07.923Z,51.40
2018-06-06T17:38:46.397Z,51.80
2018-06-06T17:41:15.144Z,52.50
2018-06-06T17:43:43.975Z,52.50
2018-06-06T17:46:13.899Z,52.60
2018-06-06T17:48:42.638Z,52.70
2018-06-06T17:51:12.792Z,51.90
2018-06-06T17:53:45.430Z,51.10
2018-06-06T17:56:43.795Z,50.90
2018-06-06T17:59:12.556Z,51.60
2018-06-06T18:01:41.393Z,51.90
2018-06-06T18:04:10.242Z,52.20
2018-06-06T18:09:08.284Z,52.50
2018-06-06T18:12:04.940Z,52.60
2018-06-06T18:14:37.125Z,52.80
2018-06-06T18:17:05.892Z,52.90
2018-06-06T18:19:39.883Z,52.70
2018-06-06T18:22:08.625Z,52.90
2018-06-06T18:24:37.503Z,53.20
2018-06-06T18:27:06.344Z,53.50
2018-06-06T18:29:35.141Z,53.20
2018-06-06T18:32:03.897Z,53.60
2018-06-06T18:34:33.744Z,53.90
2018-06-06T18:37:03.576Z,53.90
2018-06-06T18:39:32.402Z,54.00
2018-06-06T18:44:48.670Z,54.50
2018-06-06T18:47:18.539Z,54.70
2018-06-06T18:49:47.623Z,55.40
2018-06-06T18:52:17.550Z,56.00
2018-06-06T18:54:46.309Z,56.70
2018-06-06T18:57:15.175Z,57.50
2018-06-06T18:59:44.064Z,58.20
2018-06-06T19:02:12.887Z,58.90
2018-06-06T19:04:41.751Z,59.50
2018-06-06T19:07:10.437Z,59.80
2018-06-06T19:09:39.251Z,60.40
2018-06-06T19:12:08.041Z,61.30
2018-06-06T19:14:37.938Z,61.90
2018-06-06T19:17:06.713Z,62.10
2018-06-06T19:19:35.547Z,62.90
2018-06-06T19:22:04.327Z,63.50
2018-06-06T19:24:34.201Z,64.20
2018-06-06T19:27:08.611Z,64.90
2018-06-06T19:29:39.651Z,65.40
2018-06-06T19:32:08.460Z,65.90
2018-06-06T19:34:37.334Z,66.70
2018-06-06T19:37:06.349Z,67.10
2018-06-06T19:39:35.404Z,67.50
2018-06-06T19:42:05.291Z,68.10
2018-06-06T19:44:34.087Z,68.20
2018-06-06T19:47:02.849Z,68.40
2018-06-06T19:49:32.209Z,68.50
2018-06-06T19:52:01.083Z,68.90
2018-06-06T19:54:30.268Z,69.20
2018-06-06T19:56:59.109Z,69.60
2018-06-06T19:59:28.923Z,69.90
2018-06-06T20:01:58.687Z,70.00
2018-06-06T20:04:27.400Z,70.30
2018-06-06T20:06:57.317Z,70.40
2018-06-06T20:09:26.057Z,70.70
2018-06-06T20:11:55.830Z,70.70
2018-06-06T20:14:24.589Z,71.50
2018-06-06T20:16:59.630Z,71.40
2018-06-06T20:21:57.925Z,72.20
2018-06-06T20:24:26.587Z,72.70
2018-06-06T20:26:55.354Z,73.10
2018-06-06T20:29:24.219Z,73.20
2018-06-06T20:31:56.798Z,73.00
2018-06-06T20:34:25.563Z,73.30
2018-06-06T20:36:54.817Z,73.30
2018-06-06T20:39:23.579Z,73.40
2018-06-06T20:41:55.489Z,73.80
2018-06-06T20:44:24.284Z,73.60
2018-06-06T20:46:54.091Z,73.70
2018-06-06T20:49:23.853Z,73.80
2018-06-06T20:51:52.714Z,73.80
2018-06-06T20:54:21.571Z,74.10
2018-06-06T20:56:50.392Z,74.30
2018-06-06T20:59:19.237Z,74.30
2018-06-06T21:01:49.026Z,74.40
2018-06-06T21:04:17.788Z,74.20
2018-06-06T21:06:51.647Z,74.20
2018-06-06T21:09:20.559Z,73.90
2018-06-06T21:11:49.354Z,74.00
2018-06-06T21:14:18.176Z,73.90
2018-06-06T21:16:46.946Z,74.00
2018-06-06T21:19:16.059Z,74.50
2018-06-06T21:21:44.832Z,74.20
2018-06-06T21:24:14.111Z,74.50
2018-06-06T21:26:42.844Z,74.70
2018-06-06T21:29:11.645Z,74.70
2018-06-06T21:31:40.596Z,74.70
2018-06-06T21:34:10.369Z,75.00
2018-06-06T21:36:39.157Z,75.00
2018-06-06T21:39:08.936Z,74.90
2018-06-06T21:41:40.714Z,74.70
2018-06-06T21:44:09.478Z,74.70
2018-06-06T21:46:38.929Z,76.10
2018-06-06T21:49:15.696Z,76.30
2018-06-06T21:51:44.496Z,77.00
2018-06-06T21:54:13.221Z,77.00
2018-06-06T21:56:43.398Z,76.90
2018-06-06T21:59:16.463Z,77.10
2018-06-06T22:01:48.477Z,76.80
2018-06-06T22:04:17.223Z,76.70
2018-06-06T22:06:46.966Z,76.50
2018-06-06T22:09:17.792Z,76.30
2018-06-06T22:11:54.069Z,75.70
2018-06-06T22:14:22.922Z,75.20
2018-06-06T22:16:51.804Z,74.80
2018-06-06T22:19:20.652Z,74.60
2018-06-06T22:21:56.473Z,73.70
2018-06-06T22:24:25.259Z,73.70
2018-06-06T22:26:54.101Z,73.30
2018-06-06T22:29:22.883Z,73.30
2018-06-06T22:31:51.662Z,73.40
2018-06-06T22:34:23.565Z,73.30
2018-06-06T22:36:52.491Z,73.30
2018-06-06T22:39:24.319Z,72.80
2018-06-06T22:41:55.125Z,72.80
2018-06-06T22:44:23.841Z,73.30
2018-06-06T22:46:52.564Z,72.50
2018-06-06T22:49:22.396Z,72.60
2018-06-06T22:51:51.179Z,72.60
2018-06-06T22:54:20.949Z,72.90
2018-06-06T22:56:49.765Z,72.90
2018-06-06T22:59:18.543Z,73.10
2018-06-06T23:01:47.328Z,73.20
2018-06-06T23:04:16.231Z,73.30
2018-06-06T23:06:44.968Z,73.20
2018-06-06T23:09:13.705Z,73.10
2018-06-06T23:11:42.959Z,73.00
2018-06-06T23:14:11.720Z,73.00
2018-06-06T23:16:44.225Z,72.90
2018-06-06T23:19:15.036Z,72.70
2018-06-06T23:21:43.858Z,72.80
2018-06-06T23:24:12.699Z,72.60
2018-06-06T23:26:41.516Z,72.50
2018-06-06T23:29:16.212Z,72.00
2018-06-06T23:31:46.690Z,72.10
2018-06-06T23:34:15.418Z,72.20
2018-06-06T23:36:50.993Z,72.10
2018-06-06T23:39:19.798Z,71.90
2018-06-06T23:41:48.693Z,71.40
2018-06-06T23:44:18.474Z,71.50
2018-06-06T23:46:47.245Z,71.50
2018-06-06T23:49:18.088Z,71.60
2018-06-06T23:51:50.074Z,71.70
2018-06-06T23:54:18.932Z,71.50
2018-06-06T23:56:48.829Z,71.50
2018-06-06T23:59:18.591Z,71.50
